Time;durP1;ratioP1;P1;durP2;ratioP2;P2;SDS_P1;SDS_P2;PMS_P1;PMS_P2;Temp;Humidity;BMP_temperature;BMP_pressure;BME280_temperature;BME280_humidity;BME280_pressure;Samples;Min_cycle;Max_cycle;Signal;HPM_P1;HPM_P2
2022/12/07 00:01:28;;;;;;;11.30;5.27;;;;;;;18.86;49.84;100491.31;5070688;28;20178;-62
2022/12/07 00:03:56;;;;;;;9.70;5.00;;;;;;;18.83;49.62;100494.09;5063952;28;20182;-62
2022/12/07 00:06:22;;;;;;;18.97;5.90;;;;;;;18.86;49.32;100502.75;5056156;28;20486;-62
2022/12/07 00:08:48;;;;;;;16.93;6.10;;;;;;;18.78;49.55;100489.53;5073225;28;20433;-62
2022/12/07 00:11:18;;;;;;;9.53;5.67;;;;;;;18.77;49.68;100487.03;5075573;28;20163;-62
2022/12/07 00:13:44;;;;;;;8.97;5.10;;;;;;;18.80;49.83;100486.28;5075534;28;20166;-62
2022/12/07 00:16:17;;;;;;;14.13;6.43;;;;;;;18.75;49.87;100490.28;5071536;28;21177;-62
2022/12/07 00:18:42;;;;;;;12.23;4.67;;;;;;;18.77;50.17;100487.84;5038451;28;20176;-62
2022/12/07 00:21:13;;;;;;;11.70;5.70;;;;;;;18.76;50.23;100483.34;5037431;28;20422;-62
2022/12/07 00:23:39;;;;;;;8.97;5.03;;;;;;;18.78;50.32;100488.69;5065890;28;20175;-62
2022/12/07 00:26:11;;;;;;;12.67;4.90;;;;;;;18.72;50.50;100485.28;5075238;28;20785;-62
2022/12/07 00:28:37;;;;;;;9.93;5.87;;;;;;;18.78;50.52;100489.53;5073389;28;20175;-62
2022/12/07 00:31:10;;;;;;;13.13;5.30;;;;;;;18.75;50.70;100490.28;5074174;28;20424;-62
2022/12/07 00:33:35;;;;;;;10.70;5.13;;;;;;;18.75;51.03;100487.41;5057674;28;20558;-62
2022/12/07 00:36:03;;;;;;;8.03;5.60;;;;;;;18.75;51.04;100483.72;5074774;28;20409;-63
2022/12/07 00:38:30;;;;;;;9.10;5.50;;;;;;;18.70;50.86;100478.31;5059971;28;20251;-62
2022/12/07 00:40:56;;;;;;;10.63;4.47;;;;;;;18.76;50.82;100480.47;5055290;28;20947;-63
2022/12/07 00:43:22;;;;;;;16.60;5.20;;;;;;;18.82;50.74;100478.16;5061921;28;20552;-63
2022/12/07 00:45:47;;;;;;;9.10;5.53;;;;;;;18.74;51.00;100480.03;5074729;28;20421;-62
2022/12/07 00:48:13;;;;;;;10.47;4.60;;;;;;;18.76;51.11;100480.47;5073891;28;20217;-62
2022/12/07 00:50:38;;;;;;;9.70;4.13;;;;;;;18.73;51.03;100478.41;5071871;28;20191;-62
2022/12/07 00:53:04;;;;;;;7.37;4.53;;;;;;;18.73;51.36;100474.69;5074141;28;20178;-62
2022/12/07 00:55:33;;;;;;;7.37;4.80;;;;;;;18.73;51.28;100481.25;5065606;28;20249;-62
2022/12/07 00:57:58;;;;;;;9.70;4.83;;;;;;;18.70;51.29;100473.41;5069142;28;20226;-62
2022/12/07 01:00:24;;;;;;;10.03;4.53;;;;;;;18.76;51.40;100480.47;5074188;28;20409;-62
2022/12/07 01:02:49;;;;;;;8.80;4.93;;;;;;;18.72;51.54;100476.72;5070523;28;20176;-62
2022/12/07 01:05:14;;;;;;;8.50;4.90;;;;;;;18.72;52.14;100473.84;5074204;28;20194;-62
2022/12/07 01:07:40;;;;;;;9.40;4.60;;;;;;;18.74;51.54;100476.34;5075049;28;20539;-62
2022/12/07 01:10:07;;;;;;;8.03;4.40;;;;;;;18.75;51.95;100475.13;5060178;28;20196;-62
2022/12/07 01:12:32;;;;;;;11.60;4.50;;;;;;;18.72;51.77;100473.84;5036298;28;20179;-62
2022/12/07 01:14:58;;;;;;;7.30;4.63;;;;;;;18.73;51.95;100481.25;5063285;28;20441;-62
2022/12/07 01:17:23;;;;;;;8.90;4.67;;;;;;;18.70;52.01;100476.28;5035655;28;20163;-62
2022/12/07 01:19:48;;;;;;;7.63;4.07;;;;;;;18.74;51.73;100465.75;5053607;28;20529;-63
2022/12/07 01:22:14;;;;;;;6.70;4.50;;;;;;;18.73;51.92;100475.53;5055758;28;20592;-62
2022/12/07 01:24:39;;;;;;;7.90;4.20;;;;;;;18.76;51.64;100474.75;5053665;28;20563;-63
2022/12/07 01:27:05;;;;;;;9.20;4.20;;;;;;;18.71;51.98;100475.06;5063615;28;20693;-63
2022/12/07 01:29:30;;;;;;;7.50;4.57;;;;;;;18.76;51.93;100474.75;5056252;28;20635;-62
2022/12/07 01:31:56;;;;;;;6.73;4.37;;;;;;;18.69;51.96;100476.66;5053828;28;20615;-62
2022/12/07 01:34:21;;;;;;;7.83;4.50;;;;;;;18.70;52.19;100476.28;5056157;28;20191;-63
2022/12/07 01:36:46;;;;;;;8.53;4.33;;;;;;;18.72;52.21;100485.28;5054199;28;20168;-62
2022/12/07 01:39:12;;;;;;;8.20;4.43;;;;;;;18.71;52.07;100486.50;5063503;28;20527;-63
2022/12/07 01:41:40;;;;;;;7.00;3.93;;;;;;;18.67;52.14;100491.31;5056670;28;20179;-62
2022/12/07 01:44:32;;;;;;;8.23;5.17;;;;;;;18.70;52.43;100493.44;5059484;28;20175;-62
2022/12/07 01:47:02;;;;;;;6.13;4.23;;;;;;;18.71;52.33;100488.56;5070812;28;21017;-63
2022/12/07 01:49:45;;;;;;;7.17;4.40;;;;;;;18.72;52.18;100485.28;5074294;28;20414;-62
2022/12/07 01:52:17;;;;;;;7.73;4.33;;;;;;;18.66;52.64;100492.53;5074162;28;20492;-62
2022/12/07 01:54:43;;;;;;;9.90;4.70;;;;;;;18.68;52.41;100489.31;5072020;28;20442;-62
2022/12/07 01:57:09;;;;;;;6.10;3.93;;;;;;;18.67;52.40;100499.09;5054722;28;20553;-63
2022/12/07 01:59:34;;;;;;;6.63;4.20;;;;;;;18.65;52.56;100493.75;5054559;28;20405;-63
2022/12/07 02:01:59;;;;;;;5.00;3.90;;;;;;;18.68;52.38;100492.16;5037421;28;20191;-64
2022/12/07 02:04:25;;;;;;;6.33;3.90;;;;;;;18.69;52.46;100491.78;5049287;28;20199;-64
2022/12/07 02:06:50;;;;;;;7.30;4.43;;;;;;;18.65;52.54;100493.75;5070349;28;20199;-64
2022/12/07 02:09:16;;;;;;;5.97;3.80;;;;;;;18.65;52.45;100496.59;5053250;28;20179;-63
2022/12/07 02:11:41;;;;;;;7.03;4.20;;;;;;;18.67;52.58;100499.09;5052901;28;20164;-64
2022/12/07 02:14:07;;;;;;;6.67;4.40;;;;;;;18.62;52.73;100497.34;5040434;28;20213;-64
2022/12/07 02:17:08;;;;;;;6.50;3.70;;;;;;;18.63;52.85;100489.59;5047884;28;20646;-64
2022/12/07 02:20:08;;;;;;;8.10;4.40;;;;;;;18.62;52.87;100493.69;5035557;28;20175;-64
2022/12/07 02:22:36;;;;;;;6.60;3.97;;;;;;;18.60;52.80;100485.47;5045246;28;20959;-64
2022/12/07 02:25:15;;;;;;;7.07;3.80;;;;;;;18.63;53.08;100487.59;5073056;28;20858;-63
2022/12/07 02:27:56;;;;;;;5.97;3.73;;;;;;;18.65;52.59;100475.75;5038933;28;20458;-64
2022/12/07 02:30:22;;;;;;;8.00;4.77;;;;;;;18.64;52.94;100471.25;5051988;28;20453;-64
2022/12/07 02:32:53;;;;;;;5.20;4.57;;;;;;;18.65;52.80;100476.59;5038939;28;20409;-64
2022/12/07 02:35:22;;;;;;;5.17;3.47;;;;;;;18.64;52.61;100477.78;5068017;28;20549;-64
2022/12/07 02:38:19;;;;;;;5.50;4.00;;;;;;;18.63;52.86;100476.16;5055074;28;20421;-64
2022/12/07 02:40:50;;;;;;;5.90;4.30;;;;;;;18.65;52.88;100482.31;5048797;28;20931;-64
2022/12/07 02:43:40;;;;;;;10.20;4.00;;;;;;;18.65;53.08;100479.44;5038556;28;20425;-64
2022/12/07 02:46:11;;;;;;;7.17;3.83;;;;;;;18.63;52.78;100475.31;5038005;28;20570;-64
2022/12/07 02:48:36;;;;;;;5.43;3.53;;;;;;;18.61;52.80;100472.81;5039226;28;20445;-64
2022/12/07 02:51:02;;;;;;;6.77;4.30;;;;;;;18.58;53.08;100467.88;5042177;28;20510;-64
2022/12/07 02:53:36;;;;;;;5.17;4.00;;;;;;;18.65;52.75;100470.03;5056487;28;20164;-64
2022/12/07 02:56:26;;;;;;;7.90;4.00;;;;;;;18.63;53.26;100478.16;5075506;28;20536;-64
2022/12/07 02:59:06;;;;;;;6.00;3.80;;;;;;;18.60;53.01;100464.63;5029008;28;20481;-64
2022/12/07 03:01:35;;;;;;;6.20;3.97;;;;;;;18.65;52.86;100464.31;5056533;28;20552;-64
2022/12/07 03:04:24;;;;;;;12.17;4.00;;;;;;;18.62;52.92;100462.22;5067786;28;20430;-64
2022/12/07 03:06:53;;;;;;;6.03;3.90;;;;;;;18.63;53.17;100463.88;5056486;28;20556;-64
2022/12/07 03:09:44;;;;;;;4.87;3.40;;;;;;;18.61;52.98;100466.28;5051590;28;20421;-64
2022/12/07 03:12:19;;;;;;;7.10;3.70;;;;;;;18.60;53.04;100465.44;5026668;28;20442;-64
2022/12/07 03:14:52;;;;;;;6.30;4.37;;;;;;;18.59;53.00;100457.25;5041426;28;20503;-64
2022/12/07 03:17:20;;;;;;;6.90;4.43;;;;;;;18.63;53.54;100463.88;5056471;28;20814;-65
2022/12/07 03:19:46;;;;;;;7.00;4.07;;;;;;;18.62;52.96;100459.38;5038576;28;20410;-64
2022/12/07 03:22:12;;;;;;;6.40;3.67;;;;;;;18.59;53.29;100463.81;5042055;28;20933;-64
2022/12/07 03:24:52;;;;;;;4.90;3.70;;;;;;;18.63;52.96;100453.28;5076499;28;20194;-64
2022/12/07 03:27:30;;;;;;;6.50;3.60;;;;;;;18.59;53.37;100458.09;5074501;28;20449;-64
2022/12/07 03:30:00;;;;;;;5.70;3.60;;;;;;;18.59;53.47;100455.22;5058089;28;20515;-64
2022/12/07 03:32:28;;;;;;;6.57;3.73;;;;;;;18.57;53.13;100453.94;5058206;28;20401;-64
2022/12/07 03:35:01;;;;;;;6.47;3.73;;;;;;;18.61;53.12;100460.56;5047058;28;20430;-64
2022/12/07 03:37:31;;;;;;;4.10;3.30;;;;;;;18.59;52.97;100463.81;5057218;28;20429;-64
2022/12/07 03:40:15;;;;;;;6.13;3.50;;;;;;;18.62;53.26;100467.94;5076251;28;20507;-64
2022/12/07 03:42:41;;;;;;;5.00;3.17;;;;;;;18.59;53.54;100462.97;5072387;28;21159;-64
2022/12/07 03:45:07;;;;;;;6.73;3.77;;;;;;;18.57;53.28;100465.38;5075615;28;20422;-64
2022/12/07 03:48:02;;;;;;;5.67;3.80;;;;;;;18.64;52.97;100471.25;5048227;28;20729;-64
2022/12/07 03:50:50;;;;;;;6.00;3.90;;;;;;;18.60;53.21;100453.19;5024622;28;20168;-64
2022/12/07 03:53:56;;;;;;;6.47;3.73;;;;;;;18.59;53.07;100457.25;5046455;28;20517;-64
2022/12/07 03:56:21;;;;;;;5.07;4.00;;;;;;;18.56;53.17;100455.97;4973674;28;20560;-64
2022/12/07 03:58:47;;;;;;;5.00;3.50;;;;;;;18.56;53.36;100453.09;5054488;28;20488;-64
2022/12/07 04:01:12;;;;;;;6.20;4.10;;;;;;;18.56;53.36;100453.09;5054320;28;20163;-64
2022/12/07 04:03:38;;;;;;;5.17;3.87;;;;;;;18.55;53.41;100447.75;5055445;28;20187;-64
2022/12/07 04:06:03;;;;;;;9.23;3.80;;;;;;;18.54;53.27;100461.25;5074079;28;20236;-64
2022/12/07 04:08:29;;;;;;;4.93;3.57;;;;;;;18.53;53.50;100465.31;5039289;28;20177;-64
2022/12/07 04:10:54;;;;;;;5.20;3.30;;;;;;;18.55;53.41;100457.19;5072365;28;20179;-64
2022/12/07 04:13:19;;;;;;;6.60;4.00;;;;;;;18.56;53.27;100458.81;5056929;28;20183;-64
2022/12/07 04:15:45;;;;;;;9.37;4.03;;;;;;;18.55;53.52;100451.47;5073454;28;20175;-64
2022/12/07 04:18:10;;;;;;;5.33;3.90;;;;;;;18.57;53.24;100454.75;5074586;28;20171;-64
2022/12/07 04:20:36;;;;;;;5.00;3.63;;;;;;;18.57;53.47;100453.94;5072563;28;20190;-64
2022/12/07 04:23:01;;;;;;;7.23;4.30;;;;;;;18.56;53.40;100447.38;5074920;28;20897;-64
2022/12/07 04:25:27;;;;;;;5.00;3.27;;;;;;;18.54;53.35;100446.97;5072055;28;21079;-64
2022/12/07 04:27:53;;;;;;;4.67;3.23;;;;;;;18.57;53.23;100439.66;5055883;28;20203;-64
2022/12/07 04:30:19;;;;;;;6.60;4.13;;;;;;;18.61;53.42;100441.38;5054611;28;20164;-64
2022/12/07 04:32:44;;;;;;;5.63;3.60;;;;;;;18.59;53.04;100440.94;5072636;28;20424;-64
2022/12/07 04:35:09;;;;;;;6.40;4.20;;;;;;;18.56;53.29;100433.09;5069779;28;20182;-64
2022/12/07 04:37:35;;;;;;;5.77;3.80;;;;;;;18.56;53.54;100432.28;5054573;28;20233;-64
2022/12/07 04:40:00;;;;;;;5.10;3.77;;;;;;;18.59;53.24;100435.22;5065752;28;20171;-64
2022/12/07 04:42:26;;;;;;;4.47;3.40;;;;;;;18.55;53.50;100433.47;5067220;28;20241;-64
2022/12/07 04:44:51;;;;;;;4.80;3.67;;;;;;;18.54;53.31;100420.38;5065852;28;20178;-64
2022/12/07 04:47:17;;;;;;;5.80;3.73;;;;;;;18.56;53.29;100435.16;5074282;28;20202;-64
2022/12/07 04:49:42;;;;;;;5.03;4.13;;;;;;;18.53;53.81;100436.72;5073663;28;20510;-64
2022/12/07 04:52:08;;;;;;;5.37;3.70;;;;;;;18.55;53.40;100445.75;5063413;28;20666;-64
2022/12/07 04:54:33;;;;;;;3.77;3.00;;;;;;;18.59;53.22;100452.38;5053601;28;20603;-64
2022/12/07 04:56:58;;;;;;;5.00;3.60;;;;;;;18.56;53.28;100446.59;5056183;28;20306;-64
2022/12/07 04:59:24;;;;;;;6.03;3.53;;;;;;;18.56;53.52;100447.38;5053724;28;20619;-64
2022/12/07 05:01:49;;;;;;;6.97;3.70;;;;;;;18.53;53.59;100451.03;5053842;28;20176;-64
2022/12/07 05:04:15;;;;;;;4.77;3.13;;;;;;;18.55;53.23;100448.59;5068527;28;20183;-64
2022/12/07 05:06:41;;;;;;;4.60;3.50;;;;;;;18.59;53.54;100452.38;5073578;28;20198;-64
2022/12/07 05:09:07;;;;;;;4.40;3.50;;;;;;;18.56;53.39;100452.31;5074107;28;20425;-64
2022/12/07 05:11:38;;;;;;;5.13;3.93;;;;;;;18.60;53.34;100456.88;5072867;28;20159;-64
2022/12/07 05:14:06;;;;;;;6.53;3.43;;;;;;;18.56;53.40;100458.81;5060758;28;20200;-64
2022/12/07 05:16:32;;;;;;;4.60;3.20;;;;;;;18.59;53.25;100451.53;5073806;28;20413;-64
2022/12/07 05:18:57;;;;;;;3.77;2.90;;;;;;;18.62;53.12;100448.72;5074270;28;20417;-64
2022/12/07 05:21:23;;;;;;;4.97;3.50;;;;;;;18.58;53.30;100439.28;5051896;28;20182;-64
2022/12/07 05:23:48;;;;;;;6.90;3.50;;;;;;;18.55;53.44;100454.31;5053674;28;20175;-64
2022/12/07 05:26:14;;;;;;;5.07;3.27;;;;;;;18.57;53.48;100454.75;5053805;28;20293;-64
2022/12/07 05:28:39;;;;;;;5.10;3.20;;;;;;;18.59;53.38;100440.94;5055931;28;20184;-64
2022/12/07 05:31:05;;;;;;;4.60;3.00;;;;;;;18.53;53.45;100453.03;5053381;28;20176;-64
2022/12/07 05:33:30;;;;;;;5.50;3.80;;;;;;;18.56;53.57;100458.03;5056175;28;20194;-64
2022/12/07 05:35:55;;;;;;;4.10;3.00;;;;;;;18.58;53.42;100445.00;5053294;28;20566;-64
2022/12/07 05:38:21;;;;;;;5.33;3.20;;;;;;;18.59;53.22;100454.38;5049017;28;20661;-64
2022/12/07 05:40:46;;;;;;;4.70;3.53;;;;;;;18.60;53.44;100454.00;5071265;28;20912;-64
2022/12/07 05:43:12;;;;;;;5.07;3.40;;;;;;;18.58;53.40;100462.16;5073845;28;20545;-64
2022/12/07 05:45:37;;;;;;;3.90;3.37;;;;;;;18.59;53.44;100466.66;5063599;28;20238;-64
2022/12/07 05:48:03;;;;;;;5.60;3.37;;;;;;;18.60;53.32;100459.75;5053333;28;20195;-64
2022/12/07 05:50:28;;;;;;;4.10;3.10;;;;;;;18.63;53.36;100446.72;5053400;28;20165;-64
2022/12/07 05:52:54;;;;;;;5.30;3.30;;;;;;;18.61;53.37;100458.53;5053810;28;20206;-65
2022/12/07 05:55:19;;;;;;;5.37;3.53;;;;;;;18.62;53.33;100460.16;5065047;28;20187;-65
2022/12/07 05:59:22;;;;;;;4.70;3.50;;;;;;;18.54;53.41;100454.69;5073574;28;20222;-65
2022/12/07 06:00:30;;;;;;;12.97;3.93;;;;;;;18.59;53.98;100457.25;5071315;28;20296;-65
2022/12/07 06:02:55;;;;;;;4.37;3.27;;;;;;;18.61;53.48;100449.94;5057800;28;20437;-65
2022/12/07 06:05:21;;;;;;;4.57;3.23;;;;;;;18.58;53.25;100456.44;5077937;28;20199;-66
2022/12/07 06:07:46;;;;;;;4.30;3.43;;;;;;;18.62;53.40;100447.94;5066751;28;20882;-65
2022/12/07 06:10:12;;;;;;;4.63;3.30;;;;;;;18.61;53.26;100455.66;5057039;28;20688;-65
2022/12/07 06:12:39;;;;;;;4.03;3.10;;;;;;;18.58;53.33;100462.16;5057673;28;20604;-65
2022/12/07 06:15:05;;;;;;;4.33;3.30;;;;;;;18.58;53.41;100459.28;5070603;28;20589;-65
2022/12/07 06:17:31;;;;;;;4.50;3.30;;;;;;;18.59;53.57;100460.94;5062262;28;20855;-65
2022/12/07 06:19:56;;;;;;;4.63;3.30;;;;;;;18.60;53.62;100459.75;5056875;28;20422;-65
2022/12/07 06:22:22;;;;;;;4.27;3.10;;;;;;;18.59;53.34;100458.09;5064732;28;20189;-65
2022/12/07 06:24:47;;;;;;;5.20;3.63;;;;;;;18.61;53.43;100454.84;5077437;28;20251;-65
2022/12/07 06:27:13;;;;;;;4.90;3.23;;;;;;;18.60;53.39;100459.75;5076085;28;20186;-65
2022/12/07 06:29:38;;;;;;;4.47;3.10;;;;;;;18.59;53.29;100460.94;5062172;28;20179;-65
2022/12/07 06:32:04;;;;;;;5.50;3.60;;;;;;;18.58;53.48;100465.03;5075950;28;20183;-65
2022/12/07 06:34:30;;;;;;;5.40;3.33;;;;;;;18.62;53.25;100463.03;5066989;28;20214;-65
2022/12/07 06:36:55;;;;;;;4.60;3.40;;;;;;;18.60;53.30;100465.44;5056070;28;20407;-65
2022/12/07 06:39:22;;;;;;;6.43;3.70;;;;;;;18.60;53.30;100465.44;5058542;28;20187;-65
2022/12/07 06:41:47;;;;;;;5.07;3.60;;;;;;;18.64;53.47;100466.34;5055790;28;20554;-65
2022/12/07 06:44:13;;;;;;;4.40;3.30;;;;;;;18.62;53.18;100465.09;5068126;28;20459;-65
2022/12/07 06:46:38;;;;;;;6.00;3.13;;;;;;;18.62;53.34;100465.88;5057085;28;20230;-65
2022/12/07 06:49:04;;;;;;;4.60;3.50;;;;;;;18.61;53.49;100472.81;5056112;28;20175;-65
2022/12/07 06:51:30;;;;;;;5.23;3.60;;;;;;;18.60;53.38;100471.19;5058147;28;20187;-65
2022/12/07 06:53:55;;;;;;;4.60;3.27;;;;;;;18.62;53.43;100467.94;5056112;28;20267;-65
2022/12/07 06:56:22;;;;;;;4.63;2.87;;;;;;;18.63;53.86;100475.31;5055824;28;20183;-65
2022/12/07 06:58:48;;;;;;;4.60;3.07;;;;;;;18.57;53.36;100469.06;5054937;28;20224;-65
2022/12/07 07:01:14;;;;;;;4.77;3.27;;;;;;;18.59;53.36;100471.53;5058248;28;20449;-65
2022/12/07 07:03:39;;;;;;;3.63;2.83;;;;;;;18.64;53.55;100477.78;5063202;28;20538;-65
2022/12/07 07:06:05;;;;;;;4.90;3.40;;;;;;;18.67;53.36;100467.63;5071866;28;20457;-65
2022/12/07 07:08:31;;;;;;;4.93;3.77;;;;;;;18.63;53.29;100470.44;5075092;28;20170;-65
2022/12/07 07:10:56;;;;;;;4.20;3.37;;;;;;;18.62;53.77;100473.66;5075358;28;20619;-65
2022/12/07 07:13:22;;;;;;;4.07;2.87;;;;;;;18.62;53.62;100471.59;5058046;28;20468;-65
2022/12/07 07:15:47;;;;;;;4.77;3.33;;;;;;;18.60;53.32;100468.31;5074079;28;20248;-65
2022/12/07 07:18:12;;;;;;;5.20;3.20;;;;;;;18.62;53.41;100468.75;5069013;28;20186;-65
2022/12/07 07:20:38;;;;;;;5.17;3.47;;;;;;;18.59;53.58;100478.09;5037521;28;20175;-65
2022/12/07 07:23:03;;;;;;;6.03;3.60;;;;;;;18.61;53.42;100469.16;5052605;28;20183;-65
2022/12/07 07:25:29;;;;;;;5.40;3.50;;;;;;;18.62;53.40;100474.47;5055100;28;20213;-65
2022/12/07 07:27:54;;;;;;;4.70;3.40;;;;;;;18.64;53.69;100476.97;5055126;28;20203;-65
2022/12/07 07:30:20;;;;;;;5.27;3.50;;;;;;;18.67;53.83;100485.59;5068639;28;20265;-65
2022/12/07 07:32:45;;;;;;;4.60;3.07;;;;;;;18.67;53.85;100484.78;5057065;28;20180;-65
2022/12/07 07:35:11;;;;;;;6.83;3.60;;;;;;;18.65;53.84;100490.88;5055000;28;20175;-65
2022/12/07 07:37:36;;;;;;;4.83;3.13;;;;;;;18.63;53.48;100483.88;5064168;28;20179;-65
2022/12/07 07:40:02;;;;;;;4.03;3.13;;;;;;;18.58;53.54;100482.16;5056617;28;20167;-65
2022/12/07 07:42:27;;;;;;;4.30;3.00;;;;;;;18.63;53.47;100481.03;5072424;28;20341;-65
2022/12/07 07:44:53;;;;;;;4.87;3.20;;;;;;;18.65;53.45;100478.59;5067146;28;20483;-65
2022/12/07 07:47:18;;;;;;;4.53;3.43;;;;;;;18.64;53.28;100482.69;5074943;28;20782;-65
2022/12/07 07:49:44;;;;;;;4.63;3.30;;;;;;;18.61;53.53;100487.13;5063804;28;20650;-65
2022/12/07 07:52:10;;;;;;;4.30;3.50;;;;;;;18.63;53.47;100490.44;5061270;28;20213;-65
2022/12/07 07:54:35;;;;;;;4.70;3.67;;;;;;;18.64;53.47;100483.53;5073109;28;20180;-65
2022/12/07 07:57:01;;;;;;;5.53;3.17;;;;;;;18.64;53.49;100489.22;5014330;28;1153725;-65
2022/12/07 07:59:26;;;;;;;5.53;3.40;;;;;;;18.61;53.52;100487.13;5055497;28;20443;-65
2022/12/07 08:01:51;;;;;;;4.60;2.93;;;;;;;18.64;53.59;100488.41;5058030;28;20546;-65
2022/12/07 08:04:17;;;;;;;4.50;3.10;;;;;;;18.64;53.46;100494.97;5052424;28;20649;-65
2022/12/07 08:06:42;;;;;;;5.40;3.20;;;;;;;18.64;53.52;100497.81;5072595;28;20544;-65
2022/12/07 08:09:08;;;;;;;4.60;3.30;;;;;;;18.64;53.65;100488.41;5062416;28;20187;-65
2022/12/07 08:11:34;;;;;;;4.17;2.80;;;;;;;18.67;53.21;100499.09;5037726;28;20231;-65
2022/12/07 08:13:59;;;;;;;5.80;3.40;;;;;;;18.64;53.34;100489.22;5057429;28;20262;-65
2022/12/07 08:16:25;;;;;;;5.00;3.37;;;;;;;18.67;53.41;100496.22;5055240;28;20202;-65
2022/12/07 08:18:50;;;;;;;6.40;3.43;;;;;;;18.64;53.45;100489.22;5055207;28;20164;-65
2022/12/07 08:21:16;;;;;;;4.90;3.20;;;;;;;18.64;53.71;100483.53;5057856;28;20241;-65
2022/12/07 08:23:41;;;;;;;4.60;3.40;;;;;;;18.66;53.37;100495.41;5055091;28;20505;-65
2022/12/07 08:26:12;;;;;;;4.10;3.27;;;;;;;18.63;53.62;100499.03;5056318;28;20190;-65
2022/12/07 08:28:37;;;;;;;4.83;3.53;;;;;;;18.67;53.34;100502.75;5062995;28;20606;-65
2022/12/07 08:31:06;;;;;;;4.63;3.17;;;;;;;18.69;53.22;100500.38;5075192;28;20501;-65
2022/12/07 08:33:32;;;;;;;4.57;3.23;;;;;;;18.66;53.58;100503.16;5065571;28;20262;-65
2022/12/07 08:36:04;;;;;;;4.63;3.00;;;;;;;18.68;53.40;100504.44;5055156;28;20427;-65
2022/12/07 08:38:30;;;;;;;5.30;3.63;;;;;;;18.66;53.47;100506.03;5063197;28;20241;-65
2022/12/07 08:40:56;;;;;;;5.40;3.37;;;;;;;18.70;53.38;100499.16;5038778;28;20430;-65
2022/12/07 08:43:21;;;;;;;3.73;3.07;;;;;;;18.67;53.18;100496.22;5054693;28;20164;-65
2022/12/07 08:45:48;;;;;;;3.83;2.90;;;;;;;18.70;53.33;100504.03;5073758;28;20788;-65
2022/12/07 08:48:17;;;;;;;4.43;2.97;;;;;;;18.62;53.22;100502.25;5071238;28;20199;-65
2022/12/07 08:50:42;;;;;;;4.20;2.97;;;;;;;18.61;53.48;100501.41;5057376;28;20445;-65
2022/12/07 08:53:08;;;;;;;4.37;2.97;;;;;;;18.62;53.60;100503.06;5055798;28;20968;-65
2022/12/07 08:55:33;;;;;;;4.13;2.97;;;;;;;18.62;53.56;100502.25;5057823;28;20195;-65
2022/12/07 08:57:59;;;;;;;4.93;3.50;;;;;;;18.65;53.63;100502.31;5071124;28;20781;-65
2022/12/07 09:00:25;;;;;;;6.70;4.20;;;;;;;18.72;52.96;100493.06;5059309;28;20792;-65
2022/12/07 09:02:51;;;;;;;4.00;2.60;;;;;;;18.67;53.36;100494.19;5057301;28;20179;-65
2022/12/07 09:05:16;;;;;;;5.27;3.57;;;;;;;18.66;53.26;100492.53;5074583;28;20441;-65
2022/12/07 09:07:46;;;;;;;4.70;3.20;;;;;;;18.64;53.72;100489.22;5072687;28;20285;-65
2022/12/07 09:10:11;;;;;;;4.60;2.67;;;;;;;18.71;53.48;100491.41;5074288;28;20183;-65
2022/12/07 09:12:36;;;;;;;4.50;3.10;;;;;;;18.68;53.41;100489.31;5073915;28;20417;-65
2022/12/07 09:15:02;;;;;;;4.07;2.37;;;;;;;18.68;53.58;100490.16;5072808;28;20191;-65
2022/12/07 09:17:29;;;;;;;5.13;3.80;;;;;;;18.68;53.40;100501.59;5063517;28;20241;-65
2022/12/07 09:19:54;;;;;;;5.10;3.43;;;;;;;18.66;53.71;100492.53;5018242;28;20198;-65
2022/12/07 09:22:19;;;;;;;4.47;3.40;;;;;;;18.65;53.40;100496.59;5053788;28;20422;-65
2022/12/07 09:24:45;;;;;;;4.70;3.17;;;;;;;18.63;53.56;100498.19;5071435;28;20187;-65
2022/12/07 09:27:11;;;;;;;4.00;2.57;;;;;;;18.63;53.34;100499.03;5056391;28;20207;-65
2022/12/07 09:29:37;;;;;;;4.63;3.00;;;;;;;18.64;53.64;100499.84;5074116;28;20174;-65
2022/12/07 09:32:02;;;;;;;4.40;3.33;;;;;;;18.66;53.61;100506.03;5070231;28;20434;-65
2022/12/07 09:34:30;;;;;;;4.63;3.17;;;;;;;18.65;53.48;100505.19;5073744;28;20168;-65
2022/12/07 09:36:56;;;;;;;5.13;3.43;;;;;;;18.69;53.14;100500.38;5073997;28;20170;-65
2022/12/07 09:39:22;;;;;;;4.20;2.87;;;;;;;18.67;53.72;100501.94;5073204;28;20441;-65
2022/12/07 09:41:47;;;;;;;4.17;2.87;;;;;;;18.69;53.50;100490.94;5073722;28;20179;-65
2022/12/07 09:44:16;;;;;;;4.80;3.07;;;;;;;18.64;53.50;100497.81;5069358;28;20449;-65
2022/12/07 09:46:42;;;;;;;4.90;3.20;;;;;;;18.67;53.25;100499.91;5073708;28;20198;-65
2022/12/07 09:49:28;;;;;;;4.20;3.27;;;;;;;18.68;53.29;100500.75;5055064;28;20452;-65
2022/12/07 09:52:25;;;;;;;4.07;2.80;;;;;;;18.64;53.40;100494.13;5072156;28;20410;-65
2022/12/07 09:54:51;;;;;;;3.80;2.67;;;;;;;18.66;53.31;100497.44;5060253;28;20446;-65
2022/12/07 09:57:17;;;;;;;3.80;3.00;;;;;;;18.61;53.58;100489.97;5053621;28;20469;-65
2022/12/07 09:59:42;;;;;;;4.40;2.80;;;;;;;18.65;53.54;100492.91;5057351;28;20190;-65
2022/12/07 10:02:34;;;;;;;4.40;2.83;;;;;;;18.67;53.47;100490.50;5055436;28;21233;-65
2022/12/07 10:04:59;;;;;;;4.80;3.23;;;;;;;18.64;53.52;100486.38;5056918;28;20292;-65
2022/12/07 10:07:25;;;;;;;3.80;2.93;;;;;;;18.60;53.53;100488.31;5056242;28;20520;-65
2022/12/07 10:09:50;;;;;;;4.03;2.70;;;;;;;18.68;53.64;100483.59;5035603;28;20233;-65
2022/12/07 10:12:16;;;;;;;6.33;3.23;;;;;;;18.67;53.53;100488.47;5055711;28;20183;-65
2022/12/07 10:15:02;;;;;;;4.17;3.10;;;;;;;18.65;53.38;100482.31;5063324;28;20185;-65
2022/12/07 10:17:43;;;;;;;5.10;3.47;;;;;;;18.68;53.69;100481.56;5073147;28;20520;-65
2022/12/07 10:20:11;;;;;;;4.20;2.90;;;;;;;18.67;53.62;100477.03;5056063;28;20503;-65
2022/12/07 10:22:36;;;;;;;4.00;2.70;;;;;;;18.67;53.56;100471.31;5057266;28;20438;-65
2022/12/07 10:25:23;;;;;;;4.27;3.30;;;;;;;18.65;53.41;100472.88;5058626;28;21125;-66
2022/12/07 10:28:09;;;;;;;4.53;2.73;;;;;;;18.65;53.37;100462.28;5061777;28;20224;-65
2022/12/07 10:30:49;;;;;;;4.00;2.73;;;;;;;18.68;53.16;100472.97;5053148;28;20459;-65
2022/12/07 10:33:50;;;;;;;4.57;3.20;;;;;;;18.69;53.26;100456.63;5055504;28;20419;-65
2022/12/07 10:36:37;;;;;;;5.20;3.07;;;;;;;18.67;53.36;100468.44;5056041;28;20777;-65
2022/12/07 10:39:18;;;;;;;3.83;2.70;;;;;;;18.68;53.48;100461.53;5053255;28;20588;-65
2022/12/07 10:41:57;;;;;;;3.90;3.00;;;;;;;18.68;53.56;100467.25;5069754;28;20508;-65
2022/12/07 10:44:25;;;;;;;4.20;3.30;;;;;;;18.64;53.50;100454.91;5071737;28;20982;-65
2022/12/07 10:47:12;;;;;;;4.10;3.10;;;;;;;18.64;53.30;100460.63;5070639;28;20476;-65
2022/12/07 10:49:56;;;;;;;4.27;2.60;;;;;;;18.66;53.01;100449.63;5060480;28;20397;-65
2022/12/07 10:52:34;;;;;;;4.33;3.40;;;;;;;18.68;53.40;100455.81;5068875;28;20840;-65
2022/12/07 10:55:12;;;;;;;4.33;3.07;;;;;;;18.69;53.41;100448.06;5038424;28;20433;-65
2022/12/07 10:57:57;;;;;;;3.80;2.63;;;;;;;18.64;53.53;100446.34;5056950;28;20468;-65
2022/12/07 11:00:24;;;;;;;4.77;3.40;;;;;;;18.67;53.59;100444.75;5074150;28;20422;-65
2022/12/07 11:03:20;;;;;;;4.47;3.00;;;;;;;18.62;53.48;100443.00;5058516;28;20401;-65
2022/12/07 11:06:05;;;;;;;5.20;3.23;;;;;;;18.65;53.54;100436.56;5075944;28;20433;-65
2022/12/07 11:08:56;;;;;;;4.33;2.80;;;;;;;18.61;53.46;100441.38;5072546;28;20475;-65
2022/12/07 11:11:24;;;;;;;3.77;2.70;;;;;;;18.69;53.58;100437.44;5076068;28;20452;-65
2022/12/07 11:14:07;;;;;;;4.03;3.00;;;;;;;18.64;52.94;100431.22;5066838;28;20452;-65
2022/12/07 11:16:45;;;;;;;3.73;2.97;;;;;;;18.65;53.41;100430.00;5076230;28;20422;-65
2022/12/07 11:19:26;;;;;;;4.00;2.77;;;;;;;18.72;53.35;100427.28;5053835;28;20927;-65
2022/12/07 11:22:01;;;;;;;3.30;2.40;;;;;;;18.68;53.56;100429.25;5059514;28;20410;-65
2022/12/07 11:24:30;;;;;;;4.17;2.70;;;;;;;18.70;53.48;100416.22;5057901;28;21162;-65
2022/12/07 11:27:04;;;;;;;3.93;2.73;;;;;;;18.67;52.91;100419.81;5075862;28;20479;-65
2022/12/07 11:29:40;;;;;;;4.57;3.50;;;;;;;18.65;53.51;100416.53;5060632;28;20433;-65
2022/12/07 11:32:50;;;;;;;4.77;2.80;;;;;;;18.65;53.64;100413.69;5055666;28;20416;-65
2022/12/07 11:35:18;;;;;;;4.50;3.10;;;;;;;18.64;53.62;100405.47;4982596;28;20460;-65